Time;durP1;ratioP1;P1;durP2;ratioP2;P2;SDS_P1;SDS_P2;PMS_P1;PMS_P2;Temp;Humidity;BMP_temperature;BMP_pressure;BME280_temperature;BME280_humidity;BME280_pressure;Samples;Min_cycle;Max_cycle;Signal;HPM_P1;HPM_P2
2022/04/26 03:38:08;;;;;;;28.62;20.65;;;;;;;7.02;89.81;96237.95;1669065;86;21023;-82
2022/04/26 03:40:34;;;;;;;31.25;20.55;;;;;;;6.95;89.75;96236.97;1630358;86;21025;-82
2022/04/26 03:42:59;;;;;;;26.73;20.50;;;;;;;6.96;89.91;96237.28;1628337;88;21017;-83
2022/04/26 03:45:25;;;;;;;30.12;20.97;;;;;;;6.99;90.11;96240.83;1628170;88;21385;-82
2022/04/26 03:47:51;;;;;;;29.35;20.55;;;;;;;7.03;90.30;96240.37;1627200;87;21006;-82
2022/04/26 03:50:17;;;;;;;25.92;20.90;;;;;;;7.05;90.40;96244.88;1626774;87;21034;-82
2022/04/26 03:52:43;;;;;;;25.48;19.60;;;;;;;7.04;90.26;96245.86;1626803;88;21411;-82
2022/04/26 03:55:09;;;;;;;23.85;18.73;;;;;;;7.04;90.28;96247.14;1626879;88;21021;-82
2022/04/26 03:57:34;;;;;;;24.52;19.37;;;;;;;7.06;90.25;96246.50;1626943;88;21082;-82
2022/04/26 04:00:00;;;;;;;23.15;18.23;;;;;;;7.02;89.98;96246.50;1626715;87;21032;-82
2022/04/26 04:02:27;;;;;;;25.08;19.05;;;;;;;7.01;90.31;96251.84;1628960;87;21006;-82
2022/04/26 04:04:52;;;;;;;24.47;18.55;;;;;;;7.01;90.38;96255.71;1630389;87;21356;-82
2022/04/26 04:07:18;;;;;;;24.87;19.10;;;;;;;6.97;90.42;96256.98;1646614;87;22057;-83
2022/04/26 04:09:44;;;;;;;23.22;18.37;;;;;;;7.00;90.49;96263.95;1647988;87;20988;-81
2022/04/26 04:12:11;;;;;;;24.70;20.77;;;;;;;7.04;90.56;96268.30;1633985;87;21121;-81
2022/04/26 04:14:37;;;;;;;28.25;22.22;;;;;;;7.06;90.57;96269.75;1628425;87;21074;-82
2022/04/26 04:17:03;;;;;;;25.82;20.95;;;;;;;7.07;90.43;96270.06;1628209;87;21037;-82
2022/04/26 04:19:30;;;;;;;30.62;22.70;;;;;;;7.09;90.56;96275.06;1623213;88;21035;-82
2022/04/26 04:21:55;;;;;;;30.12;23.52;;;;;;;7.08;90.54;96275.55;1621712;87;21008;-82
2022/04/26 04:24:21;;;;;;;31.93;24.45;;;;;;;7.07;90.51;96280.41;1622585;87;21415;-82
2022/04/26 04:26:47;;;;;;;32.78;23.35;;;;;;;7.06;90.44;96282.66;1643199;87;21010;-82
2022/04/26 04:29:13;;;;;;;30.12;23.30;;;;;;;7.07;90.41;96282.98;1621552;88;21015;-82
2022/04/26 04:31:39;;;;;;;30.30;25.25;;;;;;;7.09;90.48;96285.41;1629304;87;20994;-82
2022/04/26 04:34:04;;;;;;;34.05;24.23;;;;;;;7.15;90.54;96293.78;1633762;87;20998;-82
2022/04/26 04:36:30;;;;;;;36.08;26.93;;;;;;;7.18;90.58;96294.30;1640604;87;20970;-82
2022/04/26 04:38:56;;;;;;;38.00;26.17;;;;;;;7.19;90.44;96294.61;1647844;87;21038;-82
2022/04/26 04:41:23;;;;;;;39.20;28.67;;;;;;;7.22;90.69;96294.28;1647492;87;21071;-82
2022/04/26 04:43:49;;;;;;;37.58;28.42;;;;;;;7.25;90.64;96299.61;1647993;87;20994;-82
2022/04/26 04:46:14;;;;;;;41.95;28.12;;;;;;;7.28;90.42;96301.86;1633771;87;21019;-82
2022/04/26 04:48:40;;;;;;;38.60;27.98;;;;;;;7.27;90.17;96292.98;1621538;87;21084;-83
2022/04/26 04:51:07;;;;;;;39.65;29.05;;;;;;;7.36;90.25;96307.52;1622981;87;20988;-82
2022/04/26 04:53:33;;;;;;;35.60;27.75;;;;;;;7.38;90.22;96306.88;1621513;87;21039;-82
2022/04/26 04:55:59;;;;;;;40.05;28.98;;;;;;;7.41;90.39;96306.54;1622607;87;21148;-82
2022/04/26 04:58:25;;;;;;;36.55;28.32;;;;;;;7.43;90.29;96307.98;1621351;87;21427;-82
2022/04/26 05:00:51;;;;;;;37.45;27.80;;;;;;;7.48;90.45;96317.38;1627556;86;21093;-82
2022/04/26 05:03:17;;;;;;;38.02;28.47;;;;;;;7.51;90.15;96313.64;1629476;87;20989;-82
2022/04/26 05:05:43;;;;;;;37.05;27.90;;;;;;;7.52;89.82;96319.14;1624878;87;21436;-82
2022/04/26 05:08:10;;;;;;;40.80;29.25;;;;;;;7.52;89.81;96323.83;1623246;87;21088;-82
2022/04/26 05:10:37;;;;;;;37.63;28.67;;;;;;;7.49;89.66;96324.64;1620270;87;21127;-82
2022/04/26 05:13:04;;;;;;;40.05;28.38;;;;;;;7.45;89.58;96325.43;1621531;87;21084;-82
2022/04/26 05:15:30;;;;;;;41.40;30.10;;;;;;;7.41;89.43;96328.52;1621499;87;21040;-82
2022/04/26 05:17:56;;;;;;;42.73;29.30;;;;;;;7.40;89.87;96334.66;1622959;87;21042;-82
2022/04/26 05:20:22;;;;;;;43.65;29.75;;;;;;;7.43;90.12;96333.84;1626045;88;21157;-83
2022/04/26 05:25:34;;;;;;;44.83;29.90;;;;;;;7.48;89.93;96338.05;1626634;87;21453;-82
2022/04/26 05:28:01;;;;;;;41.70;29.52;;;;;;;7.50;89.93;96339.98;1630219;87;21083;-82
2022/04/26 05:30:27;;;;;;;43.65;30.55;;;;;;;7.49;89.80;96341.45;1626932;87;20959;-82
2022/04/26 05:32:52;;;;;;;43.78;30.80;;;;;;;7.48;89.81;96344.52;1635424;87;21341;-82
2022/04/26 05:35:20;;;;;;;43.05;29.67;;;;;;;7.45;89.82;96347.41;1634362;87;21026;-84
2022/04/26 05:37:46;;;;;;;44.18;30.20;;;;;;;7.44;90.05;96344.98;1635986;87;21444;-82
2022/04/26 05:40:12;;;;;;;44.08;29.20;;;;;;;7.46;89.83;96346.44;1606782;87;20978;-82
2022/04/26 05:42:38;;;;;;;43.70;29.23;;;;;;;7.51;89.80;96347.26;1649498;87;21409;-82
2022/04/26 05:45:05;;;;;;;39.10;28.80;;;;;;;7.53;89.69;96348.70;1654581;87;21086;-83
2022/04/26 05:47:30;;;;;;;43.00;29.37;;;;;;;7.61;89.85;96358.70;1650713;87;21532;-82
2022/04/26 05:49:56;;;;;;;43.80;30.77;;;;;;;7.63;89.84;96356.27;1622759;87;21058;-82
2022/04/26 05:52:24;;;;;;;46.18;29.65;;;;;;;7.66;90.03;96356.45;1623540;87;20995;-83
2022/04/26 05:54:51;;;;;;;45.88;30.55;;;;;;;7.68;89.94;96357.91;1623843;87;21209;-82
2022/04/26 05:57:18;;;;;;;44.35;30.62;;;;;;;7.73;90.03;96361.28;1645945;87;21058;-83
2022/04/26 05:59:44;;;;;;;40.70;28.92;;;;;;;7.73;90.08;96360.80;1629015;87;21050;-82
2022/04/26 06:02:09;;;;;;;40.40;28.42;;;;;;;7.79;89.70;96366.59;1639279;87;20943;-82
2022/04/26 06:04:37;;;;;;;40.58;28.83;;;;;;;7.83;89.60;96363.22;1634039;87;21003;-82
2022/04/26 06:07:03;;;;;;;44.33;29.65;;;;;;;7.86;89.70;96363.36;1625329;87;21111;-82
2022/04/26 06:09:28;;;;;;;45.40;30.72;;;;;;;7.85;89.44;96363.05;1624045;87;21015;-82
2022/04/26 06:11:54;;;;;;;45.58;30.52;;;;;;;7.82;89.55;96364.99;1639324;87;21488;-82
2022/04/26 06:14:21;;;;;;;46.35;31.15;;;;;;;7.77;89.13;96367.24;1630622;87;21070;-82
2022/04/26 06:16:47;;;;;;;46.50;31.75;;;;;;;7.71;88.93;96365.81;1635371;87;20998;-82
2022/04/26 06:19:12;;;;;;;48.02;32.90;;;;;;;7.70;89.21;96365.01;1627310;87;21067;-82
2022/04/26 06:21:38;;;;;;;48.65;33.02;;;;;;;7.73;89.39;96363.86;1636909;87;20972;-82
2022/04/26 06:24:05;;;;;;;48.33;33.48;;;;;;;7.77;89.37;96367.24;1626618;87;21023;-82
2022/04/26 06:26:32;;;;;;;47.40;31.97;;;;;;;7.81;89.61;96358.70;1634912;87;21417;-82
2022/04/26 06:28:57;;;;;;;47.88;32.38;;;;;;;7.88;89.41;96367.88;1640759;87;21017;-82
2022/04/26 06:31:23;;;;;;;46.02;30.60;;;;;;;7.90;89.38;96361.56;1635447;87;20971;-82
2022/04/26 06:33:49;;;;;;;49.50;32.25;;;;;;;8.00;89.59;96364.79;1639477;87;21408;-82
2022/04/26 06:36:14;;;;;;;47.73;31.07;;;;;;;8.12;89.68;96365.22;1626680;87;21026;-83
2022/04/26 06:38:40;;;;;;;49.03;32.33;;;;;;;8.20;89.67;96363.91;1622881;87;21039;-83
2022/04/26 06:41:06;;;;;;;45.45;30.10;;;;;;;8.24;89.69;96363.89;1636443;87;21256;-83
2022/04/26 06:43:33;;;;;;;44.23;29.27;;;;;;;8.30;89.71;96368.91;1633491;87;20929;-83
2022/04/26 06:46:00;;;;;;;43.40;28.62;;;;;;;8.33;89.65;96361.61;1631245;87;21312;-82
2022/04/26 06:48:26;;;;;;;41.50;27.20;;;;;;;8.33;89.41;96364.20;1624259;87;21062;-82
2022/04/26 06:50:55;;;;;;;39.05;25.02;;;;;;;8.33;88.82;96364.20;1637710;87;21026;-83
2022/04/26 06:53:21;;;;;;;37.03;25.70;;;;;;;8.35;88.64;96366.16;1631239;87;21025;-83
2022/04/26 06:55:47;;;;;;;38.13;25.52;;;;;;;8.37;87.95;96369.38;1628231;87;21076;-83
2022/04/26 06:58:12;;;;;;;34.85;24.00;;;;;;;8.39;88.36;96373.09;1638926;87;21524;-83
2022/04/26 07:00:38;;;;;;;36.20;25.30;;;;;;;8.39;87.90;96373.09;1640358;87;21027;-83
2022/04/26 07:03:05;;;;;;;39.03;24.25;;;;;;;8.35;88.14;96378.30;1649780;87;21074;-83
2022/04/26 07:05:30;;;;;;;35.10;24.52;;;;;;;8.34;87.81;96379.27;1644146;87;21030;-82
2022/04/26 07:07:56;;;;;;;37.00;24.82;;;;;;;8.27;86.38;96375.69;1618916;87;21353;-83
2022/04/26 07:10:22;;;;;;;38.50;24.85;;;;;;;8.26;86.60;96383.94;1626068;87;20983;-82
2022/04/26 07:12:48;;;;;;;38.45;26.27;;;;;;;8.18;87.25;96364.58;1629445;87;21133;-83
2022/04/26 07:15:14;;;;;;;41.53;26.80;;;;;;;8.25;86.85;96392.69;1628804;87;21414;-83
2022/04/26 07:17:40;;;;;;;43.70;26.48;;;;;;;8.24;87.11;96389.78;1627439;87;21083;-83
2022/04/26 07:20:08;;;;;;;41.48;25.80;;;;;;;8.23;87.33;96390.75;1622130;87;21014;-82
2022/04/26 07:22:36;;;;;;;39.05;26.27;;;;;;;8.25;87.38;96393.98;1621294;87;21004;-83
2022/04/26 07:25:09;;;;;;;39.00;26.15;;;;;;;8.33;86.48;96390.58;1617501;87;21096;-83
2022/04/26 07:27:35;;;;;;;41.92;26.12;;;;;;;8.41;86.63;96387.97;1616347;87;20997;-82
2022/04/26 07:30:01;;;;;;;40.90;25.68;;;;;;;8.47;87.13;96386.02;1613631;87;21045;-82
2022/04/26 07:35:11;;;;;;;41.55;26.00;;;;;;;8.56;86.90;96389.38;1640824;87;21050;-83
2022/04/26 07:37:38;;;;;;;40.67;26.35;;;;;;;8.67;86.94;96383.83;1640336;87;21115;-83
2022/04/26 07:40:05;;;;;;;42.43;27.62;;;;;;;8.77;86.22;96383.11;1640480;87;21006;-83
2022/04/26 07:42:31;;;;;;;38.33;25.37;;;;;;;8.86;86.91;96396.34;1640534;87;20971;-83
2022/04/26 07:44:57;;;;;;;43.50;27.05;;;;;;;8.93;86.66;96391.28;1640641;87;21018;-83
2022/04/26 07:47:24;;;;;;;43.25;26.70;;;;;;;8.90;85.36;96394.22;1630538;87;20988;-83
2022/04/26 07:49:52;;;;;;;42.33;27.60;;;;;;;8.89;86.00;96395.20;1612558;87;21464;-83
2022/04/26 07:52:19;;;;;;;42.33;26.77;;;;;;;8.90;85.54;96395.52;1596668;89;21122;-83
2022/04/26 07:54:46;;;;;;;42.53;26.12;;;;;;;8.95;85.44;96401.02;1599771;87;21089;-83
2022/04/26 07:57:12;;;;;;;38.55;26.07;;;;;;;9.01;85.30;96400.31;1614401;87;21091;-83
2022/04/26 07:59:39;;;;;;;42.13;28.55;;;;;;;9.08;85.46;96406.41;1598232;90;21032;-83
2022/04/26 08:02:09;;;;;;;45.52;28.83;;;;;;;9.12;85.46;96404.31;1598567;90;21064;-83
2022/04/26 08:04:34;;;;;;;39.90;26.75;;;;;;;9.15;86.37;96404.77;1626969;88;20960;-83
2022/04/26 08:07:00;;;;;;;35.13;23.92;;;;;;;9.17;86.06;96407.99;1644985;87;21428;-83
2022/04/26 08:09:26;;;;;;;35.55;23.70;;;;;;;9.17;85.18;96404.59;1641520;87;21022;-83
2022/04/26 08:11:52;;;;;;;35.28;24.18;;;;;;;9.20;84.79;96415.91;1641683;87;20986;-83
2022/04/26 08:14:19;;;;;;;40.52;25.32;;;;;;;9.23;85.22;96423.34;1645094;87;20983;-83
2022/04/26 08:16:45;;;;;;;39.50;27.60;;;;;;;9.28;85.09;96438.72;1634047;87;20927;-83
2022/04/26 08:19:11;;;;;;;42.33;28.67;;;;;;;9.32;86.04;96430.09;1626305;87;21031;-83
2022/04/26 08:21:41;;;;;;;39.05;25.68;;;;;;;9.38;85.69;96429.89;1635429;87;21469;-83
2022/04/26 08:29:35;;;;;;;38.70;25.12;;;;;;;9.58;84.83;96444.80;1633439;87;21043;-83
2022/04/26 08:32:02;;;;;;;35.17;26.93;;;;;;;9.62;84.25;96443.50;1639423;86;21095;-83
2022/04/26 08:34:28;;;;;;;34.03;24.75;;;;;;;9.66;84.82;96444.44;1614399;89;21003;-83
2022/04/26 08:36:54;;;;;;;33.88;24.90;;;;;;;9.69;84.32;96443.59;1622061;87;20960;-83
2022/04/26 08:39:21;;;;;;;27.98;20.52;;;;;;;9.71;84.33;96449.42;1632546;87;21301;-83
2022/04/26 08:41:47;;;;;;;27.82;22.50;;;;;;;9.76;83.58;96448.42;1613845;87;21092;-83
2022/04/26 08:44:12;;;;;;;29.20;20.52;;;;;;;9.79;83.49;96454.56;1634104;87;21381;-82
2022/04/26 08:52:07;;;;;;;28.95;20.15;;;;;;;9.82;81.80;96457.28;1640090;87;21011;-83
2022/04/26 08:54:33;;;;;;;31.00;23.02;;;;;;;9.78;81.68;96457.33;1640493;87;21019;-83
2022/04/26 08:57:00;;;;;;;26.93;18.07;;;;;;;9.78;82.14;96456.84;1640516;87;21819;-83
2022/04/26 08:59:26;;;;;;;27.48;19.35;;;;;;;9.78;81.89;96458.63;1640717;87;21031;-83
2022/04/26 09:02:15;;;;;;;24.95;19.05;;;;;;;9.73;81.30;96455.23;1640506;87;21489;-83
2022/04/26 09:04:42;;;;;;;26.50;18.67;;;;;;;9.72;81.58;96458.00;1639693;85;21039;-82
2022/04/26 09:07:12;;;;;;;25.62;18.70;;;;;;;9.66;81.34;96463.41;1631718;87;20971;-82
2022/04/26 09:09:41;;;;;;;26.20;19.15;;;;;;;9.62;81.27;96464.75;1613702;87;20980;-83
2022/04/26 09:12:10;;;;;;;28.05;19.62;;;;;;;9.61;81.62;96462.64;1619721;87;21027;-83
2022/04/26 09:14:47;;;;;;;25.95;19.70;;;;;;;9.66;82.71;96463.91;1612167;87;20981;-83
2022/04/26 09:17:11;;;;;;;27.00;20.15;;;;;;;9.70;82.11;96459.97;1611023;87;21012;-82
2022/04/26 09:19:53;;;;;;;26.87;19.90;;;;;;;9.77;82.49;96458.31;1615585;87;21390;-82
2022/04/26 09:22:21;;;;;;;27.10;18.98;;;;;;;9.88;82.09;96459.98;1623307;87;21434;-82
2022/04/26 09:24:57;;;;;;;23.35;18.15;;;;;;;9.95;81.88;96465.30;1622370;87;21002;-82
2022/04/26 09:27:23;;;;;;;22.27;17.15;;;;;;;10.01;80.46;96463.28;1627914;86;21493;-82
2022/04/26 09:29:49;;;;;;;23.75;17.27;;;;;;;10.11;80.25;96467.75;1624264;87;21087;-82
2022/04/26 09:32:15;;;;;;;23.05;17.37;;;;;;;10.10;78.81;96464.84;1618401;87;21072;-83
2022/04/26 09:34:41;;;;;;;20.45;16.60;;;;;;;10.12;79.30;96464.16;1619777;87;20999;-82
2022/04/26 09:37:07;;;;;;;26.45;17.95;;;;;;;10.26;80.20;96460.02;1618924;87;22028;-82
2022/04/26 09:39:33;;;;;;;19.77;16.15;;;;;;;10.43;80.53;96464.55;1619837;87;20972;-82
2022/04/26 09:42:00;;;;;;;24.32;19.05;;;;;;;10.40;78.49;96470.88;1622633;87;21059;-82
2022/04/26 09:44:40;;;;;;;22.22;16.52;;;;;;;10.39;78.55;96461.97;1619419;87;21062;-82
2022/04/26 09:47:04;;;;;;;21.90;16.65;;;;;;;10.42;78.82;96462.94;1622108;87;20987;-82
2022/04/26 09:49:37;;;;;;;25.05;16.90;;;;;;;10.39;76.62;96460.67;1622340;87;20963;-82
2022/04/26 09:52:03;;;;;;;25.00;18.12;;;;;;;10.39;78.48;96458.08;1624904;87;21348;-82
2022/04/26 09:54:29;;;;;;;25.45;17.25;;;;;;;10.43;78.20;96459.35;1615345;87;21037;-82
2022/04/26 09:56:55;;;;;;;23.47;16.55;;;;;;;10.39;77.94;96461.48;1616757;87;21053;-82
2022/04/26 09:59:29;;;;;;;21.93;16.32;;;;;;;10.40;77.49;96461.79;1620469;87;21078;-82
2022/04/26 10:01:59;;;;;;;22.52;16.07;;;;;;;10.41;76.61;96455.64;1613873;87;20972;-81
2022/04/26 10:04:28;;;;;;;21.30;14.70;;;;;;;10.47;77.40;96461.90;1628699;87;21031;-82
2022/04/26 10:07:00;;;;;;;20.77;15.48;;;;;;;10.50;75.53;96460.23;1626233;87;21336;-82
2022/04/26 10:09:26;;;;;;;19.87;15.35;;;;;;;10.51;75.19;96460.55;1617767;87;21014;-82
2022/04/26 10:11:57;;;;;;;21.27;15.55;;;;;;;10.58;76.46;96455.46;1611416;87;21031;-82
2022/04/26 10:14:23;;;;;;;23.80;16.48;;;;;;;10.63;77.38;96461.72;1627588;87;20987;-82
2022/04/26 10:16:49;;;;;;;25.23;16.93;;;;;;;10.67;77.19;96459.07;1612596;87;21043;-83
2022/04/26 10:19:16;;;;;;;26.45;18.48;;;;;;;10.69;76.76;96456.28;1619063;87;21043;-83
2022/04/26 10:21:46;;;;;;;24.32;17.65;;;;;;;10.68;76.22;96463.28;1631835;87;21050;-83
2022/04/26 10:24:20;;;;;;;25.97;18.57;;;;;;;10.69;75.85;96467.48;1628105;87;21038;-83
2022/04/26 10:26:46;;;;;;;28.65;19.40;;;;;;;10.71;76.09;96464.70;1626299;87;21094;-83
2022/04/26 10:29:22;;;;;;;28.23;20.52;;;;;;;10.68;75.29;96465.07;1631660;87;21047;-83
2022/04/26 10:31:58;;;;;;;28.42;21.75;;;;;;;10.75;76.02;96466.78;1631919;87;20997;-83
2022/04/26 10:34:28;;;;;;;28.27;20.70;;;;;;;10.83;76.29;96465.37;1610631;88;21057;-82
2022/04/26 10:37:10;;;;;;;25.40;19.32;;;;;;;10.82;76.31;96459.86;1629103;87;21389;-83
2022/04/26 10:39:49;;;;;;;28.23;18.23;;;;;;;10.88;75.21;96468.72;1807308;79;22950;-83
2022/04/26 10:42:20;;;;;;;24.47;18.52;;;;;;;10.88;74.65;96478.31;1778829;80;21391;-83
2022/04/26 10:44:50;;;;;;;24.40;17.62;;;;;;;10.92;75.04;96471.79;1761433;80;21023;-83
2022/04/26 10:47:21;;;;;;;25.43;18.73;;;;;;;10.88;74.21;96476.52;1766206;80;21493;-83
2022/04/26 10:49:50;;;;;;;25.65;18.07;;;;;;;10.80;72.85;96474.03;1769417;80;21258;-83
2022/04/26 10:52:27;;;;;;;25.17;17.12;;;;;;;10.76;74.10;96468.89;1774321;80;20991;-83
2022/04/26 10:55:03;;;;;;;22.80;16.40;;;;;;;10.79;74.31;96471.93;1773697;80;21383;-83
2022/04/26 10:57:39;;;;;;;23.85;17.55;;;;;;;10.70;72.21;96470.89;1765178;80;21019;-83
2022/04/26 11:00:18;;;;;;;25.60;18.40;;;;;;;10.66;73.15;96474.84;1761868;80;21339;-83
2022/04/26 11:02:47;;;;;;;24.60;18.62;;;;;;;10.73;73.99;96475.23;1769507;80;21036;-83
2022/04/26 11:05:30;;;;;;;24.43;17.82;;;;;;;10.78;73.93;96478.61;1766035;79;21016;-83
2022/04/26 11:07:56;;;;;;;18.32;15.10;;;;;;;10.79;73.23;96473.72;1780214;80;21106;-84
2022/04/26 11:10:25;;;;;;;19.90;15.98;;;;;;;10.83;73.84;96474.47;1769272;80;21518;-83
2022/04/26 11:12:51;;;;;;;22.70;16.93;;;;;;;10.89;73.71;96478.13;1754773;80;21466;-83
2022/04/26 11:15:23;;;;;;;21.00;15.83;;;;;;;10.90;73.76;96475.88;1755829;80;20971;-83
2022/04/26 11:17:50;;;;;;;21.77;15.08;;;;;;;10.95;74.18;96480.52;1779612;80;21367;-81
2022/04/26 11:20:22;;;;;;;20.35;15.32;;;;;;;11.00;74.13;96484.18;1783750;80;20976;-82
2022/04/26 11:22:57;;;;;;;20.20;14.28;;;;;;;11.05;74.45;96481.02;1783872;80;21335;-80
2022/04/26 11:28:14;;;;;;;20.70;15.90;;;;;;;11.12;72.18;96481.44;1752693;80;21042;-80
2022/04/26 11:30:44;;;;;;;21.15;16.52;;;;;;;11.05;72.66;96481.02;1752875;82;21008;-80
2022/04/26 11:33:19;;;;;;;19.70;15.23;;;;;;;11.03;73.36;96489.50;1753145;80;21314;-80
2022/04/26 11:35:45;;;;;;;19.60;14.63;;;;;;;11.03;72.82;96488.20;1780903;80;21040;-80
2022/04/26 11:38:16;;;;;;;19.52;15.00;;;;;;;11.01;71.33;96492.29;1756541;80;21435;-80
2022/04/26 11:40:58;;;;;;;16.23;14.15;;;;;;;10.99;71.79;96489.06;1745523;81;21317;-80
2022/04/26 11:43:28;;;;;;;14.13;12.30;;;;;;;11.04;72.12;96495.02;1745726;81;21072;-82
2022/04/26 11:45:56;;;;;;;14.43;12.10;;;;;;;11.09;71.71;96492.20;1752650;81;20995;-80
2022/04/26 11:48:25;;;;;;;15.88;13.15;;;;;;;11.09;70.89;96488.30;1768824;80;20968;-81
2022/04/26 11:50:53;;;;;;;14.87;12.95;;;;;;;11.10;71.28;96490.41;1744628;82;20968;-80
2022/04/26 11:53:29;;;;;;;11.28;9.73;;;;;;;11.09;71.61;96496.11;1744731;82;20972;-80
2022/04/26 11:56:02;;;;;;;16.32;12.47;;;;;;;11.12;70.12;96489.73;1744741;82;21037;-80
2022/04/26 11:58:38;;;;;;;14.33;11.45;;;;;;;11.10;71.06;96494.31;1760769;81;21040;-80
2022/04/26 12:01:15;;;;;;;13.30;11.95;;;;;;;11.14;70.43;96495.55;1775381;80;20988;-79
2022/04/26 12:03:49;;;;;;;14.05;11.63;;;;;;;11.14;70.42;96491.65;1775204;80;21011;-80
2022/04/26 12:06:19;;;;;;;13.28;11.83;;;;;;;11.10;68.80;96498.20;1747340;81;21015;-80
2022/04/26 12:08:52;;;;;;;15.05;12.60;;;;;;;11.02;69.43;96502.20;1752846;81;21432;-80
2022/04/26 12:11:26;;;;;;;15.50;13.60;;;;;;;11.05;70.52;96497.43;1753288;81;21330;-80
2022/04/26 12:14:08;;;;;;;17.32;13.03;;;;;;;11.12;71.38;96502.73;1775298;80;21372;-80
2022/04/26 12:16:48;;;;;;;14.58;11.95;;;;;;;11.14;71.72;96490.34;1775548;80;21017;-80
2022/04/26 12:19:14;;;;;;;16.32;13.62;;;;;;;11.14;69.73;96489.05;1775279;80;20984;-80
2022/04/26 12:21:57;;;;;;;13.95;11.30;;;;;;;11.13;71.03;96488.24;1775429;81;21398;-80
2022/04/26 12:24:29;;;;;;;12.78;10.63;;;;;;;11.21;70.03;96490.41;1773565;80;21026;-80
2022/04/26 12:26:58;;;;;;;13.18;11.28;;;;;;;11.26;71.01;96487.59;1775633;80;20980;-80
2022/04/26 12:29:37;;;;;;;14.10;11.90;;;;;;;11.29;69.36;96493.73;1774822;80;20920;-80
2022/04/26 12:32:10;;;;;;;12.78;11.28;;;;;;;11.29;69.85;96492.42;1754279;81;20957;-80
2022/04/26 12:34:36;;;;;;;13.78;11.57;;;;;;;11.28;69.28;96490.81;1750495;81;20967;-80
2022/04/26 12:37:09;;;;;;;15.30;13.70;;;;;;;11.29;69.72;96491.62;1760820;81;21031;-80
2022/04/26 12:39:48;;;;;;;15.18;13.58;;;;;;;11.26;70.15;96485.48;1740970;81;21107;-80
2022/04/26 12:42:19;;;;;;;14.70;12.88;;;;;;;11.21;69.29;96489.11;1746368;81;21017;-81
2022/04/26 12:44:54;;;;;;;16.73;12.68;;;;;;;11.10;68.81;96483.91;1757536;81;21116;-80
2022/04/26 12:50:29;;;;;;;14.60;11.70;;;;;;;11.10;70.25;96482.61;1753388;81;21411;-80
2022/04/26 12:52:59;;;;;;;15.68;14.00;;;;;;;11.08;70.00;96478.09;1739697;81;21027;-80
2022/04/26 12:55:37;;;;;;;13.30;11.90;;;;;;;11.04;70.24;96483.31;1737062;82;21439;-81
2022/04/26 12:58:12;;;;;;;14.23;11.80;;;;;;;10.97;69.48;96481.14;1768471;81;20976;-80
2022/04/26 13:00:47;;;;;;;14.13;11.45;;;;;;;10.99;69.65;96485.17;1768886;81;20941;-80
2022/04/26 13:03:17;;;;;;;13.10;11.70;;;;;;;10.99;69.12;96485.66;1769250;81;21395;-80
2022/04/26 13:05:48;;;;;;;13.22;10.98;;;;;;;10.95;68.74;96478.73;1770137;81;20969;-80
2022/04/26 13:08:15;;;;;;;15.20;13.18;;;;;;;10.94;69.13;96483.61;1769845;81;21348;-81
2022/04/26 13:10:41;;;;;;;15.10;12.88;;;;;;;10.83;68.85;96480.16;1770048;81;20984;-81
2022/04/26 13:13:09;;;;;;;13.93;12.25;;;;;;;10.83;69.89;96487.97;1769830;81;21415;-81
2022/04/26 13:15:35;;;;;;;12.82;11.03;;;;;;;10.76;68.79;96481.39;1769688;81;20968;-80
2022/04/26 13:18:03;;;;;;;13.08;11.68;;;;;;;10.78;69.46;96483.31;1766512;81;20912;-81
2022/04/26 13:20:29;;;;;;;13.15;11.70;;;;;;;10.81;70.11;96477.75;1763976;81;20944;-80
2022/04/26 13:22:55;;;;;;;19.15;16.15;;;;;;;10.86;70.51;96481.59;1766283;81;20962;-80
2022/04/26 13:25:21;;;;;;;13.13;11.75;;;;;;;10.88;69.28;96479.12;1768666;81;20949;-80
2022/04/26 13:27:48;;;;;;;14.70;12.75;;;;;;;10.92;69.10;96478.29;1769942;81;20993;-81
2022/04/26 13:30:14;;;;;;;11.30;10.10;;;;;;;10.97;69.81;96469.44;1768800;81;20940;-80
2022/04/26 13:32:40;;;;;;;12.60;10.63;;;;;;;10.99;68.21;96467.46;1761509;81;21038;-80
2022/04/26 13:35:06;;;;;;;10.58;9.53;;;;;;;11.02;68.16;96477.00;1763704;81;20980;-80
2022/04/26 13:37:32;;;;;;;11.57;9.10;;;;;;;11.01;68.47;96475.39;1769211;81;20973;-80
2022/04/26 13:40:00;;;;;;;19.30;17.30;;;;;;;11.08;68.85;96472.39;1769247;81;21020;-81
2022/04/26 13:42:27;;;;;;;22.10;20.00;;;;;;;11.11;68.64;96475.92;1769857;81;20956;-81
2022/04/26 13:44:55;;;;;;;18.95;17.05;;;;;;;11.17;68.24;96476.17;1769997;81;20921;-81
2022/04/26 13:47:21;;;;;;;11.85;10.60;;;;;;;11.21;68.16;96469.11;1769218;81;20947;-80
2022/04/26 13:49:47;;;;;;;10.88;9.48;;;;;;;11.29;68.11;96469.52;1762267;81;21006;-81
2022/04/26 13:52:16;;;;;;;10.10;9.10;;;;;;;11.26;66.46;96467.28;1766453;81;20912;-80
2022/04/26 13:54:46;;;;;;;11.80;10.70;;;;;;;11.23;66.72;96467.16;1762314;81;20921;-80
2022/04/26 13:57:10;;;;;;;10.63;9.40;;;;;;;11.31;67.99;96468.33;1761063;81;21343;-80
2022/04/26 13:59:36;;;;;;;10.13;9.13;;;;;;;11.35;67.36;96476.57;1762447;81;21030;-80
2022/04/26 14:02:03;;;;;;;11.20;9.70;;;;;;;11.37;67.21;96479.30;1762285;81;20992;-80
2022/04/26 14:04:28;;;;;;;11.08;9.40;;;;;;;11.34;66.08;96479.67;1762461;81;21057;-81
2022/04/26 14:06:54;;;;;;;13.65;8.70;;;;;;;11.29;64.76;96480.72;1762371;81;21357;-81
2022/04/26 14:09:22;;;;;;;11.90;9.85;;;;;;;11.20;65.67;96474.00;1761988;81;21118;-80
2022/04/26 14:11:48;;;;;;;12.88;11.53;;;;;;;11.17;65.27;96476.97;1762354;81;21044;-80
2022/04/26 14:22:31;;;;;;;13.78;10.82;;;;;;;11.23;66.26;96481.96;1762532;81;21019;-81
2022/04/26 14:24:55;;;;;;;16.65;13.65;;;;;;;11.25;67.64;96480.78;1761960;81;20960;-81
2022/04/26 14:27:20;;;;;;;14.90;12.30;;;;;;;11.35;66.96;96477.38;1766830;81;20968;-81
2022/04/26 14:29:47;;;;;;;19.02;16.80;;;;;;;11.41;66.27;96475.36;1769867;81;21007;-81
2022/04/26 14:32:13;;;;;;;19.12;15.35;;;;;;;11.42;66.05;96483.47;1765312;81;20988;-81
2022/04/26 14:34:39;;;;;;;18.05;15.55;;;;;;;11.35;65.22;96473.97;1769848;81;20959;-81
2022/04/26 14:37:05;;;;;;;18.65;13.25;;;;;;;11.28;66.52;96464.80;1769594;81;21395;-80
2022/04/26 14:39:31;;;;;;;14.95;12.63;;;;;;;11.37;66.15;96474.09;1772374;81;20989;-80
2022/04/26 14:41:58;;;;;;;17.75;15.85;;;;;;;11.39;66.45;96473.94;1762387;81;20988;-80
2022/04/26 14:44:24;;;;;;;19.10;16.50;;;;;;;11.41;66.59;96477.16;1754185;80;20992;-81
2022/04/26 14:46:51;;;;;;;15.25;12.47;;;;;;;11.43;67.45;96478.58;1750283;81;21295;-80
2022/04/26 14:49:16;;;;;;;15.15;13.55;;;;;;;11.41;65.20;96476.66;1693547;84;20952;-81
2022/04/26 14:51:42;;;;;;;18.05;15.53;;;;;;;11.34;65.52;96480.97;1687885;84;21360;-80
2022/04/26 14:54:08;;;;;;;18.25;16.10;;;;;;;11.31;66.95;96480.04;1653362;85;21051;-80
2022/04/26 14:56:33;;;;;;;16.85;15.15;;;;;;;11.32;66.82;96482.95;1693132;84;20933;-80
2022/04/26 14:59:03;;;;;;;14.35;12.50;;;;;;;11.27;66.51;96484.00;1775139;81;21019;-80
2022/04/26 15:01:30;;;;;;;14.40;12.68;;;;;;;11.14;65.33;96490.34;1774875;80;21053;-80
2022/04/26 15:03:56;;;;;;;14.85;11.78;;;;;;;10.97;65.08;96489.75;1767065;80;21391;-80
2022/04/26 15:06:22;;;;;;;14.70;11.95;;;;;;;10.86;65.34;96490.69;1774861;81;20968;-80
2022/04/26 15:11:32;;;;;;;15.65;13.98;;;;;;;10.78;66.29;96493.70;1775540;80;21363;-81
2022/04/26 15:16:46;;;;;;;16.60;14.13;;;;;;;10.82;66.35;96491.55;1749633;80;20984;-81
2022/04/26 15:19:11;;;;;;;17.32;13.68;;;;;;;10.80;65.76;96496.13;1765072;81;21023;-80
2022/04/26 15:21:38;;;;;;;15.03;12.88;;;;;;;10.76;65.55;96490.48;1745745;81;20963;-80
2022/04/26 15:24:04;;;;;;;15.88;12.73;;;;;;;10.74;66.28;96492.95;1744698;82;20984;-80
2022/04/26 15:26:30;;;;;;;18.40;15.05;;;;;;;10.75;66.60;96491.97;1766716;81;21375;-81
2022/04/26 15:28:56;;;;;;;16.25;14.15;;;;;;;10.76;67.30;96489.68;1775190;81;20975;-80
2022/04/26 15:31:35;;;;;;;19.80;16.48;;;;;;;10.74;66.40;96491.16;1767569;81;20947;-81
2022/04/26 15:33:51;;;;;;;17.92;15.13;;;;;;;10.76;65.93;96487.09;1752837;81;21010;-81
2022/04/26 15:36:17;;;;;;;18.75;15.32;;;;;;;10.74;66.65;96492.95;1764069;81;21359;-80
2022/04/26 15:38:43;;;;;;;15.83;13.15;;;;;;;10.66;66.43;96491.23;1772822;80;21073;-80